Impacts METAR Board
IDs:

KORD - Chicago/O'Hare Intl, IL, US

Updated at: 2200 UTC 01 Mar 2021
Potential Impact None Slight Moderate High
Time 01/10Z 01/11Z 01/12Z 01/13Z 01/14Z 01/15Z 01/16Z 01/17Z 01/18Z 01/19Z 01/20Z 01/21Z 01/22Z
Temp29 27 26 26 26 29 31 32 33 33 34 33 33
Dewpt22 21 19 18 18 18 18 20 21 18 17 11 12
Altim30.05 30.07 30.10 30.12 30.16 30.19 30.19 30.22 30.25 30.26 30.27 30.28 30.30
VIS10 10 10 10 10 10 10 10 10 10 10 10 10
CIG-- -- -- 130 140 -- -- 33 -- -- -- -- --
CoverCLRFEWSCTBKNBKNSCTFEWBKNSCTSCTFEWFEWFEW
FltCatVFRVFRVFRVFRVFRVFRVFRVFRVFRVFRVFRVFRVFR
WX--------------------------
WDir290290290290300320330340330330330300300
WSpd6 7 7 8 10 12 8 13 13 11 12 8 8
WGst-- -- -- -- -- -- -- -- 20 19 -- 16 --
Raw hourly METARs
KORD 010951Z 29006KT 10SM CLR M02/M06 A3005 RMK AO2 SLP183 T10171056
KORD 011051Z 29007KT 10SM FEW250 M03/M06 A3007 RMK AO2 SLP190 T10281061
KORD 011151Z 29007KT 10SM SCT250 M03/M07 A3010 RMK AO2 SLP200 70001 T10331072 10011 21033 53026
KORD 011251Z 29008KT 10SM BKN130 BKN250 M03/M08 A3012 RMK AO2 SLP207 T10331078
KORD 011351Z 30010KT 10SM SCT090 BKN140 BKN250 M03/M08 A3016 RMK AO2 SLP222 T10331078
KORD 011451Z 32012KT 10SM FEW090 FEW140 SCT250 M02/M08 A3019 RMK AO2 SLP229 T10171078 53028
KORD 011551Z 33008KT 10SM FEW100 FEW250 M01/M08 A3019 RMK AO2 SLP231 T10061078
KORD 011651Z 34013KT 10SM BKN033 BKN250 00/M07 A3022 RMK AO2 SLP242 T00001067
KORD 011751Z 33013G20KT 10SM SCT030 01/M06 A3025 RMK AO2 SLP250 T00061061 10006 21033 53021
KORD 011851Z 33011G19KT 10SM SCT034 01/M08 A3026 RMK AO2 SLP254 T00061078
KORD 011951Z 33012KT 10SM FEW042 01/M08 A3027 RMK AO2 SLP258 T00111083
KORD 012051Z 30008G16KT 10SM FEW040 01/M12 A3028 RMK AO2 SLP263 T00061117 52012
KORD 012151Z 30008KT 10SM FEW040 FEW250 01/M11 A3030 RMK AO2 SLP268 T00061111



Page loaded:  22:11 UTC  |   02:11 PM Pacific  |   03:11 PM Mountain  |   04:11 PM Central  |   05:11 PM Eastern

 

ADVISORIES

FORECASTS

FORECASTS

OBSERVATIONS

USER TOOLS

ABOUT US